createdAt,value
2022-09-23T00:00:11.578Z,7.96
2022-09-23T00:03:03.415Z,7.96
2022-09-23T00:05:38.277Z,7.99
2022-09-23T00:08:11.978Z,8.11
2022-09-23T00:16:16.406Z,8.34
2022-09-23T00:18:49.685Z,8.55
2022-09-23T00:21:25.453Z,8.47
2022-09-23T00:23:57.174Z,8.57
2022-09-23T00:26:28.951Z,8.75
2022-09-23T00:29:00.691Z,8.76
2022-09-23T00:31:32.810Z,8.77
2022-09-23T00:34:05.054Z,8.75
2022-09-23T00:36:40.636Z,8.67
2022-09-23T00:39:12.597Z,8.65
2022-09-23T00:41:44.656Z,8.62
2022-09-23T00:44:48.397Z,8.58
2022-09-23T00:47:26.836Z,8.52
2022-09-23T00:50:09.215Z,8.45
2022-09-23T00:52:46.637Z,8.38
2022-09-23T00:55:39.458Z,8.32
2022-09-23T00:58:15.795Z,8.30
2022-09-23T01:01:30.096Z,8.23
2022-09-23T01:04:02.375Z,8.19
2022-09-23T01:06:34.123Z,8.14
2022-09-23T01:09:08.917Z,8.12
2022-09-23T01:11:47.195Z,8.06
2022-09-23T01:14:40.696Z,8.02
2022-09-23T01:17:17.556Z,7.96
2022-09-23T01:20:21.516Z,7.92
2022-09-23T01:23:01.158Z,7.91
2022-09-23T01:26:04.836Z,7.86
2022-09-23T01:28:50.119Z,7.83
2022-09-23T01:31:36.038Z,7.79
2022-09-23T01:34:14.274Z,7.78
2022-09-23T01:36:51.418Z,7.74
2022-09-23T01:39:30.763Z,7.69
2022-09-23T01:42:08.405Z,7.69
2022-09-23T01:44:47.537Z,7.67
2022-09-23T01:47:26.595Z,7.64
2022-09-23T01:50:03.597Z,7.64
2022-09-23T01:52:42.917Z,7.59
2022-09-23T01:55:21.639Z,7.58
2022-09-23T01:57:59.791Z,7.58
2022-09-23T02:00:35.200Z,7.57
2022-09-23T02:03:15.678Z,7.53
2022-09-23T02:05:51.056Z,7.53
2022-09-23T02:08:27.997Z,7.48
2022-09-23T02:11:04.886Z,7.58
2022-09-23T02:13:44.156Z,7.55
2022-09-23T02:16:22.101Z,7.53
2022-09-23T02:18:59.502Z,7.57
2022-09-23T02:21:38.517Z,7.62
2022-09-23T02:24:15.697Z,7.60
2022-09-23T02:26:53.275Z,7.64
2022-09-23T02:29:31.476Z,7.60
2022-09-23T02:32:16.417Z,7.62
2022-09-23T02:35:00.556Z,7.60
2022-09-23T02:37:40.817Z,7.55
2022-09-23T02:40:23.880Z,7.52
2022-09-23T02:43:08.376Z,7.48
2022-09-23T02:45:40.865Z,7.47
2022-09-23T02:48:19.516Z,7.45
2022-09-23T02:50:54.657Z,7.42
2022-09-23T02:53:27.303Z,7.45
2022-09-23T02:55:59.455Z,7.42
2022-09-23T02:58:32.957Z,7.41
2022-09-23T03:01:16.861Z,7.38
2022-09-23T03:03:54.775Z,7.35
2022-09-23T03:06:35.275Z,7.35
2022-09-23T03:09:13.536Z,7.37
2022-09-23T03:11:49.823Z,7.35
2022-09-23T03:14:29.825Z,7.33
2022-09-23T03:17:06.504Z,7.32
2022-09-23T03:19:43.577Z,7.32
2022-09-23T03:22:24.779Z,7.31
2022-09-23T03:25:01.835Z,7.30
2022-09-23T03:27:36.056Z,7.31
2022-09-23T03:30:10.376Z,7.30
2022-09-23T03:32:45.480Z,7.27
2022-09-23T03:35:17.856Z,7.25
2022-09-23T03:37:57.155Z,7.21
2022-09-23T03:40:32.902Z,7.20
2022-09-23T03:43:05.375Z,7.17
2022-09-23T03:45:37.910Z,7.15
2022-09-23T03:48:09.800Z,7.15
2022-09-23T03:50:41.595Z,7.14
2022-09-23T03:53:18.208Z,7.14
2022-09-23T03:55:49.918Z,7.15
2022-09-23T03:58:21.667Z,7.12
2022-09-23T04:00:55.012Z,7.10
2022-09-23T04:03:29.515Z,7.09
2022-09-23T04:06:01.127Z,7.08
2022-09-23T04:08:35.439Z,7.08
2022-09-23T04:11:08.296Z,7.07
2022-09-23T04:13:40.723Z,7.04
2022-09-23T04:16:12.250Z,7.01
2022-09-23T04:18:43.956Z,7.01
2022-09-23T04:21:15.435Z,7.02
2022-09-23T04:23:50.016Z,7.01
2022-09-23T04:26:22.215Z,6.99
2022-09-23T04:28:53.876Z,6.98
2022-09-23T04:31:25.920Z,6.94
2022-09-23T04:33:58.395Z,6.95
2022-09-23T04:36:30.581Z,6.95
2022-09-23T04:39:05.829Z,6.96
2022-09-23T04:41:37.456Z,6.98
2022-09-23T04:44:09.220Z,7.07
2022-09-23T04:46:41.558Z,7.10
2022-09-23T04:49:13.317Z,7.13
2022-09-23T04:51:45.844Z,7.17
2022-09-23T04:54:20.227Z,7.14
2022-09-23T04:56:51.716Z,7.16
2022-09-23T04:59:23.936Z,7.28
2022-09-23T05:01:55.579Z,7.23
2022-09-23T05:04:27.658Z,7.36
2022-09-23T05:07:02.882Z,7.38
2022-09-23T05:09:38.756Z,7.33
2022-09-23T05:12:10.999Z,7.50
2022-09-23T05:14:43.055Z,7.41
2022-09-23T05:17:14.985Z,7.45
2022-09-23T05:19:47.095Z,7.58
2022-09-23T05:22:18.897Z,7.60
2022-09-23T05:24:53.661Z,7.52
2022-09-23T05:27:25.696Z,7.69
2022-09-23T05:30:11.818Z,7.73
2022-09-23T05:32:44.937Z,7.73
2022-09-23T05:35:17.057Z,7.72
2022-09-23T05:37:48.957Z,7.76
2022-09-23T05:40:23.721Z,7.81
2022-09-23T05:42:56.305Z,7.75
2022-09-23T05:45:43.356Z,7.91
2022-09-23T05:48:15.355Z,8.05
2022-09-23T05:50:53.619Z,8.12
2022-09-23T05:53:25.576Z,8.20
2022-09-23T05:56:01.252Z,8.26
2022-09-23T05:58:33.058Z,8.33
2022-09-23T06:01:13.348Z,8.24
2022-09-23T06:03:45.275Z,8.27
2022-09-23T06:06:18.540Z,8.39
2022-09-23T06:08:51.117Z,8.46
2022-09-23T06:11:25.937Z,8.58
2022-09-23T06:14:01.394Z,8.69
2022-09-23T06:16:35.948Z,8.70
2022-09-23T06:19:08.477Z,8.72
2022-09-23T06:21:42.077Z,8.78
2022-09-23T06:24:18.914Z,8.81
2022-09-23T06:26:56.035Z,8.83
2022-09-23T06:29:28.417Z,8.92
2022-09-23T06:32:00.561Z,8.90
2022-09-23T06:34:41.437Z,9.01
2022-09-23T06:37:20.680Z,9.12
2022-09-23T06:39:55.018Z,9.25
2022-09-23T06:42:29.677Z,9.15
2022-09-23T06:45:02.418Z,9.40
2022-09-23T06:47:34.596Z,9.45
2022-09-23T06:50:06.598Z,9.60
2022-09-23T06:52:38.717Z,9.69
2022-09-23T06:55:11.763Z,9.89
2022-09-23T06:57:46.576Z,10.01
2022-09-23T07:00:19.422Z,10.16
2022-09-23T07:02:51.853Z,10.34
2022-09-23T07:05:23.834Z,10.45
2022-09-23T07:07:56.371Z,10.57
2022-09-23T07:10:29.430Z,10.82
2022-09-23T07:13:07.711Z,11.18
2022-09-23T07:15:39.696Z,11.22
2022-09-23T07:18:11.772Z,11.24
2022-09-23T07:20:43.572Z,11.42
2022-09-23T07:23:16.343Z,11.65
2022-09-23T07:25:51.992Z,11.66
2022-09-23T07:28:28.241Z,11.89
2022-09-23T07:31:01.040Z,11.96
2022-09-23T07:33:33.708Z,11.98
2022-09-23T07:36:10.759Z,12.29
2022-09-23T07:38:45.679Z,12.48
2022-09-23T07:41:20.820Z,12.70
2022-09-23T07:43:59.223Z,12.88
2022-09-23T07:46:33.147Z,13.08
2022-09-23T07:49:05.726Z,13.02
2022-09-23T07:51:39.321Z,13.27
2022-09-23T07:54:15.598Z,13.27
2022-09-23T07:56:48.649Z,13.44
2022-09-23T07:59:23.715Z,13.50
2022-09-23T08:01:56.930Z,13.65
2022-09-23T08:04:31.162Z,13.80
2022-09-23T08:07:05.482Z,14.00
2022-09-23T08:09:41.722Z,13.77
2022-09-23T08:12:16.356Z,14.12
2022-09-23T08:14:51.145Z,14.26
2022-09-23T08:17:23.023Z,14.75
2022-09-23T08:19:55.020Z,15.12
2022-09-23T08:22:26.634Z,15.69
2022-09-23T08:24:58.591Z,15.79
2022-09-23T08:27:30.131Z,16.50
2022-09-23T08:30:04.573Z,17.28
2022-09-23T08:32:36.098Z,17.81
2022-09-23T08:35:08.616Z,18.23
2022-09-23T08:37:40.554Z,18.71
2022-09-23T08:40:13.299Z,19.08
2022-09-23T08:42:49.353Z,19.39
2022-09-23T08:45:27.074Z,18.91
2022-09-23T08:48:09.588Z,19.00
2022-09-23T08:50:46.510Z,19.27
2022-09-23T08:53:24.862Z,19.12
2022-09-23T08:55:58.822Z,19.71
2022-09-23T08:58:45.894Z,19.88
2022-09-23T09:01:25.112Z,20.26
2022-09-23T09:03:59.538Z,20.14
2022-09-23T09:06:51.855Z,20.17
2022-09-23T09:09:29.964Z,20.79
2022-09-23T09:12:07.943Z,20.86
2022-09-23T09:14:46.484Z,20.64
2022-09-23T09:17:34.387Z,20.81
2022-09-23T09:20:17.118Z,21.25
2022-09-23T09:22:57.927Z,21.14
2022-09-23T09:25:48.202Z,21.10
2022-09-23T09:28:28.542Z,21.31
2022-09-23T09:31:03.265Z,21.55
2022-09-23T09:33:45.038Z,21.55
2022-09-23T09:36:26.932Z,21.77
2022-09-23T09:38:58.888Z,21.67
2022-09-23T09:41:31.666Z,21.90
2022-09-23T09:44:14.825Z,21.68
2022-09-23T09:46:59.393Z,22.08
2022-09-23T09:49:44.378Z,22.44
2022-09-23T09:52:25.757Z,22.01
2022-09-23T09:55:01.670Z,22.12
2022-09-23T09:57:40.089Z,21.66
2022-09-23T10:00:38.430Z,22.45
2022-09-23T10:03:27.945Z,22.71
2022-09-23T10:06:02.456Z,22.45
2022-09-23T10:08:35.692Z,21.81
2022-09-23T10:11:09.752Z,21.47
2022-09-23T10:13:41.506Z,21.40
2022-09-23T10:16:13.413Z,21.36
2022-09-23T10:18:57.123Z,20.89
2022-09-23T10:21:37.872Z,20.76
2022-09-23T10:24:11.272Z,21.20
2022-09-23T10:26:48.594Z,21.32
2022-09-23T10:29:27.560Z,20.90
2022-09-23T10:32:28.897Z,21.33
2022-09-23T10:35:05.265Z,21.03
2022-09-23T10:37:43.256Z,21.44
2022-09-23T10:40:35.103Z,21.62
2022-09-23T10:43:47.029Z,21.57
2022-09-23T10:46:42.979Z,21.54
2022-09-23T10:49:41.304Z,21.76
2022-09-23T10:52:47.261Z,21.64
2022-09-23T10:55:45.940Z,21.09
2022-09-23T10:58:44.570Z,21.04
2022-09-23T11:01:32.536Z,21.18
2022-09-23T11:04:36.918Z,20.61
2022-09-23T11:07:24.156Z,21.34
2022-09-23T11:10:45.399Z,20.38
2022-09-23T11:13:33.845Z,19.92
2022-09-23T11:16:17.631Z,20.27
2022-09-23T11:19:22.437Z,20.15
2022-09-23T11:22:07.393Z,19.80
2022-09-23T11:25:06.681Z,19.47
2022-09-23T11:28:00.401Z,20.01
2022-09-23T11:30:41.153Z,19.51
2022-09-23T11:33:27.759Z,19.31
2022-09-23T11:36:05.498Z,19.77
2022-09-23T11:38:41.496Z,19.22
2022-09-23T11:41:21.881Z,19.85
2022-09-23T11:44:04.713Z,19.85
2022-09-23T11:46:42.545Z,19.79
2022-09-23T11:49:20.159Z,19.45
2022-09-23T11:52:06.304Z,19.53
2022-09-23T11:54:46.722Z,19.27
2022-09-23T11:57:27.325Z,19.25
2022-09-23T12:00:06.130Z,19.07
2022-09-23T12:03:01.529Z,18.98
2022-09-23T12:05:42.761Z,19.11
2022-09-23T12:08:22.797Z,19.30
2022-09-23T12:11:01.831Z,18.76
2022-09-23T12:13:43.194Z,18.98
2022-09-23T12:16:54.132Z,18.56
2022-09-23T12:19:52.020Z,18.60
2022-09-23T12:22:37.737Z,18.85
2022-09-23T12:25:30.209Z,18.80
2022-09-23T12:28:08.225Z,18.70
2022-09-23T12:30:42.526Z,18.82
2022-09-23T12:33:26.758Z,18.45
2022-09-23T12:36:08.097Z,18.59
2022-09-23T12:38:43.662Z,18.30
2022-09-23T12:41:27.327Z,18.76
2022-09-23T12:44:03.184Z,18.56
2022-09-23T12:46:35.460Z,18.51
2022-09-23T12:49:27.462Z,18.60
2022-09-23T12:52:28.156Z,18.53
2022-09-23T12:55:57.387Z,18.42
2022-09-23T12:58:41.532Z,18.37
2022-09-23T13:01:27.406Z,18.42
2022-09-23T13:04:15.041Z,17.38
2022-09-23T13:06:59.233Z,17.80
2022-09-23T13:09:34.451Z,18.03
2022-09-23T13:12:12.813Z,17.95
2022-09-23T13:14:50.732Z,17.96
2022-09-23T13:17:33.263Z,17.77
2022-09-23T13:20:09.153Z,17.80
2022-09-23T13:23:07.454Z,17.74
2022-09-23T13:25:46.249Z,17.60
2022-09-23T13:28:32.359Z,17.81
2022-09-23T13:31:09.029Z,17.98
2022-09-23T13:33:46.014Z,17.63
2022-09-23T13:36:21.432Z,17.64
2022-09-23T13:38:56.675Z,17.70
2022-09-23T13:41:47.379Z,17.83
2022-09-23T13:44:22.234Z,17.92
2022-09-23T13:46:58.432Z,18.01
2022-09-23T13:49:49.341Z,17.95
2022-09-23T13:52:30.074Z,17.86
2022-09-23T13:55:04.612Z,17.85
2022-09-23T13:57:38.078Z,17.48
2022-09-23T14:00:21.597Z,17.58
2022-09-23T14:02:54.232Z,17.47
2022-09-23T14:05:28.557Z,17.42
2022-09-23T14:08:00.794Z,17.38
2022-09-23T14:11:05.426Z,17.42
2022-09-23T14:13:44.817Z,17.50
2022-09-23T14:16:21.609Z,17.29
2022-09-23T14:18:58.717Z,17.06
2022-09-23T14:21:35.396Z,17.08
2022-09-23T14:24:18.919Z,17.31
2022-09-23T14:26:58.016Z,17.39
2022-09-23T14:29:34.122Z,17.34
2022-09-23T14:32:10.931Z,17.45
2022-09-23T14:34:48.466Z,17.40
2022-09-23T14:37:40.940Z,17.68
2022-09-23T14:40:17.751Z,17.68
2022-09-23T14:43:03.055Z,17.88
2022-09-23T14:45:38.217Z,17.98
2022-09-23T14:48:13.546Z,17.93
2022-09-23T14:50:51.599Z,18.19
2022-09-23T14:53:42.284Z,17.97
2022-09-23T14:56:20.584Z,18.03
2022-09-23T14:59:00.890Z,18.02
2022-09-23T15:01:39.237Z,17.91
2022-09-23T15:04:20.450Z,17.83
2022-09-23T15:06:57.584Z,17.83
2022-09-23T15:09:33.570Z,17.91
2022-09-23T15:12:10.180Z,17.86
2022-09-23T15:14:49.335Z,17.97
2022-09-23T15:17:34.256Z,17.95
2022-09-23T15:20:09.579Z,17.83
2022-09-23T15:22:48.594Z,17.82
2022-09-23T15:25:24.811Z,17.76
2022-09-23T15:28:23.855Z,17.58
2022-09-23T15:30:58.392Z,17.66
2022-09-23T15:33:31.007Z,17.65
2022-09-23T15:36:03.545Z,17.52
2022-09-23T15:38:35.706Z,17.44
2022-09-23T15:41:07.828Z,17.45
2022-09-23T15:43:40.171Z,17.46
2022-09-23T15:46:19.896Z,17.42
2022-09-23T15:49:05.291Z,17.44
2022-09-23T15:51:40.694Z,17.32
2022-09-23T15:54:15.129Z,17.37
2022-09-23T15:57:05.713Z,17.38
2022-09-23T15:59:44.245Z,16.98
2022-09-23T16:02:24.870Z,16.92
2022-09-23T16:04:57.504Z,16.93
2022-09-23T16:07:29.453Z,16.99
2022-09-23T16:10:01.607Z,16.84
2022-09-23T16:12:33.599Z,16.95
2022-09-23T16:15:05.803Z,17.03
2022-09-23T16:17:40.432Z,16.89
2022-09-23T16:20:15.678Z,16.90
2022-09-23T16:22:52.704Z,16.73
2022-09-23T16:25:30.552Z,16.68
2022-09-23T16:28:02.620Z,16.72
2022-09-23T16:30:37.529Z,16.63
2022-09-23T16:33:12.044Z,16.45
2022-09-23T16:35:44.225Z,16.57
2022-09-23T16:38:28.201Z,16.55
2022-09-23T16:41:03.249Z,16.57
2022-09-23T16:43:39.850Z,16.53
2022-09-23T16:46:13.523Z,16.46
2022-09-23T16:48:52.248Z,16.40
2022-09-23T16:51:26.838Z,16.46
2022-09-23T16:54:00.269Z,16.34
2022-09-23T16:56:32.285Z,16.19
2022-09-23T16:59:04.028Z,16.03
2022-09-23T17:01:48.168Z,16.16
2022-09-23T17:04:22.924Z,16.15
2022-09-23T17:06:56.685Z,15.98
2022-09-23T17:09:34.065Z,15.97
2022-09-23T17:12:21.707Z,15.78
2022-09-23T17:14:53.640Z,15.83
2022-09-23T17:17:26.050Z,15.77
2022-09-23T17:20:00.278Z,15.60
2022-09-23T17:22:33.707Z,15.44
2022-09-23T17:25:05.349Z,15.55
2022-09-23T17:27:37.447Z,15.57
2022-09-23T17:30:10.498Z,15.57
2022-09-23T17:32:42.266Z,15.49
2022-09-23T17:35:16.953Z,15.42
2022-09-23T17:37:49.744Z,15.33
2022-09-23T17:40:21.377Z,15.25
2022-09-23T17:42:53.458Z,15.09
2022-09-23T17:45:25.074Z,15.07
2022-09-23T17:47:58.035Z,15.00
2022-09-23T17:50:34.455Z,15.09
2022-09-23T17:53:07.215Z,14.94
2022-09-23T17:55:38.756Z,14.86
2022-09-23T17:58:10.523Z,14.85
2022-09-23T18:00:42.074Z,14.79
2022-09-23T18:03:15.173Z,14.76
2022-09-23T18:05:51.516Z,14.76
2022-09-23T18:08:23.835Z,14.67
2022-09-23T18:10:55.337Z,14.69
2022-09-23T18:13:27.380Z,14.66
2022-09-23T18:15:58.889Z,14.64
2022-09-23T18:18:30.683Z,14.67
2022-09-23T18:21:07.863Z,14.69
2022-09-23T18:23:40.170Z,14.66
2022-09-23T18:26:17.423Z,14.62
2022-09-23T18:28:49.542Z,14.46
2022-09-23T18:31:21.283Z,14.40
2022-09-23T18:33:54.023Z,14.54
2022-09-23T18:36:29.301Z,14.44
2022-09-23T18:39:01.404Z,14.40
2022-09-23T18:41:34.145Z,14.36
2022-09-23T18:44:07.028Z,14.40
2022-09-23T18:46:39.142Z,14.55
2022-09-23T18:49:24.324Z,14.40
2022-09-23T18:52:00.403Z,14.43
2022-09-23T18:54:32.844Z,14.31
2022-09-23T18:57:05.485Z,14.33
2022-09-23T18:59:37.947Z,14.33
2022-09-23T19:02:09.923Z,14.28
2022-09-23T19:04:42.338Z,14.21
2022-09-23T19:07:17.297Z,14.27
2022-09-23T19:09:50.914Z,14.21
2022-09-23T19:12:23.334Z,14.11
2022-09-23T19:14:55.854Z,14.12
2022-09-23T19:17:27.955Z,13.95
2022-09-23T19:20:00.108Z,14.00
2022-09-23T19:22:34.836Z,14.06
2022-09-23T19:25:07.867Z,14.09
2022-09-23T19:27:40.422Z,13.88
2022-09-23T19:30:13.925Z,13.82
2022-09-23T19:32:49.209Z,13.66
2022-09-23T19:35:21.428Z,13.62
2022-09-23T19:37:57.840Z,13.76
2022-09-23T19:40:30.028Z,13.53
2022-09-23T19:43:02.508Z,13.50
2022-09-23T19:45:36.151Z,13.63
2022-09-23T19:48:09.390Z,13.43
2022-09-23T19:50:42.092Z,13.62
2022-09-23T19:53:16.910Z,13.52
2022-09-23T19:55:49.090Z,13.63
2022-09-23T19:58:24.052Z,13.47
2022-09-23T20:00:56.757Z,13.44
2022-09-23T20:03:30.990Z,13.54
2022-09-23T20:06:03.151Z,13.51
2022-09-23T20:08:38.990Z,13.52
2022-09-23T20:11:16.208Z,13.46
2022-09-23T20:13:49.652Z,13.43
2022-09-23T20:16:23.149Z,13.55
2022-09-23T20:18:56.774Z,13.52
2022-09-23T20:21:29.565Z,13.38
2022-09-23T20:24:05.919Z,13.51
2022-09-23T20:26:50.557Z,13.47
2022-09-23T20:29:22.690Z,13.40
2022-09-23T20:31:55.024Z,13.43
2022-09-23T20:34:27.231Z,13.43
2022-09-23T20:37:01.451Z,13.33
2022-09-23T20:39:36.194Z,13.35
2022-09-23T20:42:09.514Z,13.20
2022-09-23T20:44:45.256Z,13.18
2022-09-23T20:47:19.210Z,13.00
2022-09-23T20:49:51.159Z,13.27
2022-09-23T20:52:23.470Z,13.19
2022-09-23T20:54:59.211Z,13.06
2022-09-23T20:57:31.950Z,13.04
2022-09-23T21:00:05.051Z,13.07
2022-09-23T21:02:37.342Z,13.15
2022-09-23T21:05:12.582Z,13.16
2022-09-23T21:07:44.664Z,12.98
2022-09-23T21:10:19.502Z,13.11
2022-09-23T21:12:52.963Z,13.07
2022-09-23T21:15:25.424Z,13.05
2022-09-23T21:17:57.482Z,12.98
2022-09-23T21:20:39.761Z,13.22
2022-09-23T21:23:12.166Z,13.10
2022-09-23T21:25:47.068Z,13.11
2022-09-23T21:28:19.227Z,13.04
2022-09-23T21:30:52.053Z,13.16
2022-09-23T21:33:24.648Z,13.10
2022-09-23T21:35:58.310Z,13.19
2022-09-23T21:38:33.535Z,13.10
2022-09-23T21:41:09.826Z,12.97
2022-09-23T21:43:55.646Z,13.09
2022-09-23T21:46:54.634Z,13.01
2022-09-23T21:49:28.271Z,13.09
2022-09-23T21:52:01.047Z,13.15
2022-09-23T21:54:33.005Z,13.10
2022-09-23T21:57:07.350Z,13.03
2022-09-23T21:59:39.087Z,13.03
2022-09-23T22:02:10.670Z,13.08
2022-09-23T22:04:42.496Z,13.20
2022-09-23T22:07:14.206Z,13.14
2022-09-23T22:09:47.185Z,13.04
2022-09-23T22:12:21.706Z,13.18
2022-09-23T22:14:53.625Z,13.18
2022-09-23T22:17:25.287Z,13.21
2022-09-23T22:19:57.466Z,13.16
2022-09-23T22:22:28.925Z,13.17
2022-09-23T22:25:00.655Z,12.96
2022-09-23T22:28:08.514Z,12.97
2022-09-23T22:31:16.313Z,12.99
2022-09-23T22:33:47.987Z,12.94
2022-09-23T22:36:19.865Z,12.97
2022-09-23T22:38:59.012Z,13.02
2022-09-23T22:41:31.704Z,12.90
2022-09-23T22:44:06.457Z,12.93
2022-09-23T22:46:38.379Z,12.90
2022-09-23T22:49:10.168Z,12.79
2022-09-23T22:51:42.044Z,12.94
2022-09-23T22:54:13.972Z,12.88
2022-09-23T22:56:45.787Z,12.80
2022-09-23T22:59:19.985Z,12.92
2022-09-23T23:01:53.017Z,12.80
2022-09-23T23:04:24.587Z,12.78
2022-09-23T23:06:56.406Z,12.76
2022-09-23T23:09:28.006Z,12.70
2022-09-23T23:11:59.914Z,12.71
2022-09-23T23:14:34.285Z,12.55
2022-09-23T23:17:07.784Z,12.66
2022-09-23T23:19:39.426Z,12.70
2022-09-23T23:22:11.146Z,12.65
2022-09-23T23:24:42.766Z,12.71
2022-09-23T23:27:14.526Z,12.68
2022-09-23T23:29:48.665Z,12.67
2022-09-23T23:32:20.492Z,12.65
2022-09-23T23:34:51.926Z,12.64
2022-09-23T23:37:23.784Z,12.69
2022-09-23T23:39:55.505Z,12.63
2022-09-23T23:42:27.508Z,12.49
2022-09-23T23:45:01.786Z,12.65
2022-09-23T23:47:33.486Z,12.64
2022-09-23T23:50:09.326Z,12.71
2022-09-23T23:52:41.585Z,12.66
2022-09-23T23:55:13.347Z,12.52
2022-09-23T23:57:45.447Z,12.59
